Time;durP1;ratioP1;P1;durP2;ratioP2;P2;SDS_P1;SDS_P2;PMS_P1;PMS_P2;Temp;Humidity;BMP_temperature;BMP_pressure;BME280_temperature;BME280_humidity;BME280_pressure;Samples;Min_cycle;Max_cycle;Signal;HPM_P1;HPM_P2
2024/01/06 00:00:26;;;;;;;15.40;10.87;;;;;;;7.27;69.57;96943.16;4894127;29;20660;-63
2024/01/06 00:02:53;;;;;;;16.10;11.37;;;;;;;7.23;70.21;96930.47;4892426;29;20753;-65
2024/01/06 00:05:21;;;;;;;19.57;12.27;;;;;;;7.23;69.83;96915.00;4893807;29;20293;-65
2024/01/06 00:07:48;;;;;;;23.40;12.03;;;;;;;7.55;69.57;96955.94;4893626;29;20302;-63
2024/01/06 00:10:15;;;;;;;19.77;12.80;;;;;;;7.45;68.61;96931.41;4893935;29;20201;-66
2024/01/06 00:12:44;;;;;;;18.53;12.03;;;;;;;7.79;69.22;96970.50;4893254;29;20227;-65
2024/01/06 00:15:11;;;;;;;20.37;12.40;;;;;;;7.81;69.29;96958.41;4893703;29;20197;-66
2024/01/06 00:17:39;;;;;;;21.53;13.23;;;;;;;7.73;69.26;96944.97;4893742;29;20283;-64
2024/01/06 00:20:07;;;;;;;19.70;13.33;;;;;;;7.83;69.46;96943.72;4893705;29;20251;-65
2024/01/06 00:22:35;;;;;;;17.67;11.90;;;;;;;7.84;68.42;96945.44;4893643;29;20215;-63
2024/01/06 00:25:02;;;;;;;18.03;11.47;;;;;;;7.81;68.42;96953.25;4893609;29;20287;-63
2024/01/06 00:27:30;;;;;;;20.67;12.90;;;;;;;7.65;70.39;96965.03;4892077;29;20262;-63
2024/01/06 00:29:57;;;;;;;20.13;12.10;;;;;;;7.77;69.70;96980.03;4893402;29;20675;-63
2024/01/06 00:32:24;;;;;;;19.30;10.70;;;;;;;7.81;69.68;96968.72;4893641;29;20738;-65
2024/01/06 00:34:51;;;;;;;17.20;10.33;;;;;;;7.75;69.25;96955.25;4893550;29;20197;-65
2024/01/06 00:37:18;;;;;;;15.87;9.93;;;;;;;7.73;68.10;96963.00;4893378;29;20287;-64
2024/01/06 00:39:45;;;;;;;15.83;9.30;;;;;;;7.79;68.82;96951.66;4891799;29;20251;-63
2024/01/06 00:42:12;;;;;;;14.60;9.33;;;;;;;8.08;67.02;96947.09;4893234;29;20658;-65
2024/01/06 00:44:41;;;;;;;17.50;10.87;;;;;;;7.66;68.30;96947.81;4891841;29;20213;-64
2024/01/06 00:47:08;;;;;;;19.63;11.40;;;;;;;7.46;69.39;96951.09;4893124;29;20195;-64
2024/01/06 00:49:35;;;;;;;17.63;10.23;;;;;;;7.31;69.45;96926.75;4893266;29;20203;-65
2024/01/06 00:52:03;;;;;;;14.30;9.30;;;;;;;6.99;68.79;96869.50;4893018;29;20207;-65
2024/01/06 00:54:30;;;;;;;18.23;9.20;;;;;;;7.14;70.19;96920.47;4893051;29;20228;-66
2024/01/06 00:56:57;;;;;;;15.67;9.97;;;;;;;7.25;70.40;96928.69;4893012;29;20758;-65
2024/01/06 00:59:25;;;;;;;17.53;10.20;;;;;;;7.33;70.72;96924.09;4892597;29;20233;-65
2024/01/06 01:01:52;;;;;;;14.07;9.50;;;;;;;7.25;70.32;96914.03;4892815;29;20207;-64
2024/01/06 01:04:19;;;;;;;12.30;9.10;;;;;;;7.31;69.88;96898.41;4892968;29;20281;-64
2024/01/06 01:06:46;;;;;;;16.23;9.90;;;;;;;7.61;69.09;96945.41;4907080;29;20197;-65
2024/01/06 01:09:14;;;;;;;19.70;10.17;;;;;;;7.71;69.49;96944.19;4892790;29;20202;-65
2024/01/06 01:11:41;;;;;;;15.50;9.50;;;;;;;7.61;68.85;96927.38;4892659;29;20198;-64
2024/01/06 01:14:08;;;;;;;13.13;8.53;;;;;;;7.59;69.95;96952.34;4892749;29;20266;-64
2024/01/06 01:16:35;;;;;;;14.00;9.43;;;;;;;7.56;69.73;96938.75;4892516;29;20226;-64
2024/01/06 01:19:03;;;;;;;16.40;9.37;;;;;;;7.37;70.25;96949.72;4892442;29;20585;-65
2024/01/06 01:21:30;;;;;;;15.40;9.33;;;;;;;7.30;69.88;96917.31;4892324;29;20736;-63
2024/01/06 01:23:57;;;;;;;14.30;9.70;;;;;;;7.31;71.01;96913.00;4892421;29;20214;-66
2024/01/06 01:26:24;;;;;;;14.97;10.13;;;;;;;7.21;71.42;96911.66;4892472;29;20202;-63
2024/01/06 01:28:51;;;;;;;16.23;9.57;;;;;;;7.13;72.33;96904.16;4892759;29;20242;-64
2024/01/06 01:31:18;;;;;;;19.97;11.37;;;;;;;7.10;72.21;96894.00;4892529;29;20595;-64
2024/01/06 01:33:46;;;;;;;16.63;11.17;;;;;;;6.74;72.69;96878.97;4883944;29;20896;-66
2024/01/06 01:36:13;;;;;;;18.00;10.57;;;;;;;6.83;74.32;96881.22;4873826;29;20216;-64
2024/01/06 01:38:40;;;;;;;17.40;10.80;;;;;;;7.12;73.04;96878.47;4873589;29;20199;-63
2024/01/06 01:41:07;;;;;;;16.83;11.37;;;;;;;7.25;72.85;96872.03;4873603;29;20301;-64
2024/01/06 01:43:34;;;;;;;16.93;10.63;;;;;;;7.21;72.47;96871.25;4873675;29;20310;-63
2024/01/06 01:46:01;;;;;;;17.03;10.03;;;;;;;7.01;72.06;96880.56;4873473;29;20293;-64
2024/01/06 01:48:28;;;;;;;14.23;8.73;;;;;;;7.18;71.96;96897.13;4873515;29;20206;-63
2024/01/06 01:50:56;;;;;;;13.80;9.50;;;;;;;7.15;71.45;96875.81;4873900;29;20204;-64
2024/01/06 01:53:24;;;;;;;17.43;10.00;;;;;;;7.27;72.07;96865.06;4873389;29;20283;-64
2024/01/06 01:55:52;;;;;;;15.47;9.53;;;;;;;6.94;74.06;96873.97;4873213;29;20202;-64
2024/01/06 01:58:20;;;;;;;14.47;9.93;;;;;;;6.99;73.28;96872.91;4887303;29;20248;-65
2024/01/06 02:00:47;;;;;;;15.70;9.47;;;;;;;6.98;73.31;96878.97;4871812;29;20239;-65
2024/01/06 02:03:15;;;;;;;14.70;9.43;;;;;;;7.06;72.37;96891.56;4873374;29;20283;-65
2024/01/06 02:05:42;;;;;;;12.73;9.10;;;;;;;7.09;73.01;96884.56;4873688;29;20310;-65
2024/01/06 02:08:09;;;;;;;13.93;9.20;;;;;;;7.09;72.82;96876.84;4872973;29;20259;-69
2024/01/06 02:10:37;;;;;;;13.30;9.40;;;;;;;7.02;71.94;96874.53;4872815;29;20207;-69
2024/01/06 02:13:10;;;;;;;17.00;10.27;;;;;;;6.88;72.42;96859.59;4872643;29;20243;-69
2024/01/06 02:15:38;;;;;;;22.67;12.27;;;;;;;6.48;74.53;96849.78;4872573;29;20209;-68
2024/01/06 02:18:07;;;;;;;21.10;11.97;;;;;;;6.48;74.73;96882.38;4872870;29;20213;-69
2024/01/06 02:20:35;;;;;;;18.43;10.63;;;;;;;6.59;74.69;96878.53;4856175;29;20641;-67
2024/01/06 02:23:02;;;;;;;11.23;8.70;;;;;;;6.43;73.83;96868.81;4873024;29;20192;-67
2024/01/06 02:25:29;;;;;;;15.73;9.50;;;;;;;6.26;75.20;96866.81;4872949;29;20776;-66
2024/01/06 02:27:56;;;;;;;13.27;9.47;;;;;;;6.20;74.24;96843.81;4872762;29;20353;-67
2024/01/06 02:30:24;;;;;;;12.70;8.77;;;;;;;6.32;75.35;96851.19;4873101;29;20210;-68
2024/01/06 02:32:51;;;;;;;12.57;8.40;;;;;;;6.41;74.87;96844.88;4872497;29;20673;-63
2024/01/06 02:35:20;;;;;;;15.73;9.00;;;;;;;6.37;74.49;96827.84;4872755;29;20213;-67
2024/01/06 02:37:47;;;;;;;12.03;8.03;;;;;;;6.36;75.07;96839.91;4872621;29;20205;-68
2024/01/06 02:40:14;;;;;;;13.13;9.47;;;;;;;6.55;74.50;96842.72;4872808;29;20298;-68
2024/01/06 02:42:41;;;;;;;10.57;7.33;;;;;;;6.80;75.04;96845.28;4872469;29;20223;-68
2024/01/06 02:45:12;;;;;;;13.50;9.13;;;;;;;6.91;73.38;96850.91;4872274;29;20197;-68
2024/01/06 02:47:39;;;;;;;16.87;9.33;;;;;;;7.02;73.46;96859.09;4872245;29;20205;-68
2024/01/06 02:50:07;;;;;;;14.13;9.07;;;;;;;7.00;73.56;96830.84;4886337;29;20290;-68
2024/01/06 02:52:34;;;;;;;13.60;9.23;;;;;;;7.16;73.94;96846.59;4871134;29;20707;-67
2024/01/06 02:55:01;;;;;;;14.60;9.33;;;;;;;7.18;73.12;96844.78;4872609;29;20546;-67
2024/01/06 02:57:31;;;;;;;17.27;9.00;;;;;;;7.03;73.30;96845.31;4870723;29;20652;-63
2024/01/06 02:59:58;;;;;;;10.87;7.57;;;;;;;6.61;73.87;96821.91;4872231;29;20286;-67
2024/01/06 03:02:25;;;;;;;18.43;10.00;;;;;;;6.78;74.59;96847.09;4872113;29;20746;-67
2024/01/06 03:04:52;;;;;;;17.40;9.83;;;;;;;6.61;73.96;96837.34;4870791;29;20207;-68
2024/01/06 03:07:19;;;;;;;14.63;8.53;;;;;;;6.79;74.83;96861.63;4871295;29;20329;-66
2024/01/06 03:09:46;;;;;;;15.17;8.27;;;;;;;6.22;74.38;96782.91;4872047;29;20206;-68
2024/01/06 03:12:14;;;;;;;12.20;7.83;;;;;;;6.51;75.43;96847.09;4872005;29;20624;-69
2024/01/06 03:14:41;;;;;;;13.63;8.57;;;;;;;6.71;74.36;96853.31;4870561;29;20207;-68
2024/01/06 03:17:10;;;;;;;13.13;8.37;;;;;;;6.48;75.31;96854.94;4872425;29;20193;-67
2024/01/06 03:19:38;;;;;;;12.67;7.83;;;;;;;6.53;75.06;96849.63;4871936;29;20209;-67
2024/01/06 03:22:06;;;;;;;10.90;6.90;;;;;;;6.49;75.73;96825.72;4870691;29;20193;-68
2024/01/06 03:24:33;;;;;;;8.40;6.83;;;;;;;6.52;74.52;96811.94;4871934;29;20220;-64
2024/01/06 03:27:00;;;;;;;14.73;6.70;;;;;;;6.74;74.49;96837.78;4871856;29;20780;-68
2024/01/06 03:29:27;;;;;;;11.00;7.47;;;;;;;6.73;74.88;96825.81;4871942;29;20198;-66
2024/01/06 03:31:54;;;;;;;10.00;6.60;;;;;;;6.68;74.16;96807.13;4872063;29;20209;-68
2024/01/06 03:34:21;;;;;;;9.53;6.13;;;;;;;6.88;73.78;96809.84;4872104;29;20212;-66
2024/01/06 03:36:48;;;;;;;13.13;7.40;;;;;;;6.74;74.90;96820.59;4871963;29;20567;-68
2024/01/06 03:39:16;;;;;;;18.63;9.67;;;;;;;6.78;75.50;96821.34;4872050;29;20202;-66
2024/01/06 03:41:43;;;;;;;15.53;8.73;;;;;;;6.11;74.29;96691.63;4872102;29;20661;-68
2024/01/06 03:44:10;;;;;;;13.90;8.97;;;;;;;7.14;73.76;96822.63;4871930;29;20286;-65
2024/01/06 03:46:37;;;;;;;11.70;7.63;;;;;;;7.01;73.71;96811.06;4871924;29;20620;-66
2024/01/06 03:49:04;;;;;;;16.03;9.20;;;;;;;7.20;73.22;96835.28;4871985;29;20301;-68
2024/01/06 03:51:32;;;;;;;19.00;10.47;;;;;;;7.05;73.71;96833.22;4870573;29;20295;-64
2024/01/06 03:53:59;;;;;;;15.80;11.00;;;;;;;6.91;75.11;96822.59;4871841;29;20218;-68
2024/01/06 03:56:26;;;;;;;18.67;10.57;;;;;;;6.96;74.82;96826.69;4870599;29;20202;-66
2024/01/06 03:58:53;;;;;;;15.83;11.00;;;;;;;6.85;75.04;96815.09;4871690;29;20211;-66
2024/01/06 04:01:21;;;;;;;31.77;15.00;;;;;;;6.87;75.00;96823.59;4871425;29;20329;-68
2024/01/06 04:03:48;;;;;;;25.80;14.60;;;;;;;6.71;75.65;96833.56;4871828;29;20206;-68
2024/01/06 04:06:15;;;;;;;21.77;13.00;;;;;;;6.66;75.75;96830.31;4871720;29;20634;-66
2024/01/06 04:08:42;;;;;;;21.80;12.50;;;;;;;6.77;74.66;96822.22;4871725;29;20757;-66
2024/01/06 04:11:09;;;;;;;19.27;11.57;;;;;;;6.81;74.35;96816.09;4871453;29;20199;-67
2024/01/06 04:13:36;;;;;;;14.33;9.63;;;;;;;6.72;74.83;96811.28;4870244;29;20709;-67
2024/01/06 04:16:05;;;;;;;16.43;9.30;;;;;;;6.39;75.48;96826.91;4871444;29;20210;-66
2024/01/06 04:18:32;;;;;;;14.27;8.90;;;;;;;6.21;76.85;96831.81;4871918;29;20664;-66
2024/01/06 04:20:59;;;;;;;16.07;9.07;;;;;;;6.19;76.95;96828.47;4874922;29;20246;-65
2024/01/06 04:23:27;;;;;;;14.90;8.63;;;;;;;6.24;77.31;96837.72;4873536;29;20649;-65
2024/01/06 04:25:54;;;;;;;16.57;9.93;;;;;;;6.19;77.85;96820.75;4874890;29;20207;-63
2024/01/06 04:28:21;;;;;;;16.37;9.33;;;;;;;6.13;75.88;96820.94;4874963;29;20240;-68
2024/01/06 04:30:48;;;;;;;13.03;9.03;;;;;;;6.18;76.63;96837.06;4874850;29;20211;-64
2024/01/06 04:33:15;;;;;;;16.60;9.83;;;;;;;6.18;76.87;96829.38;4875069;29;20365;-62
2024/01/06 04:35:43;;;;;;;15.00;10.00;;;;;;;5.96;77.80;96825.75;4874877;29;20588;-66
2024/01/06 04:38:10;;;;;;;13.17;9.37;;;;;;;5.98;77.80;96829.97;4874598;29;20273;-65
2024/01/06 04:40:37;;;;;;;21.07;8.90;;;;;;;5.78;78.37;96847.69;4874494;29;20234;-64
2024/01/06 04:43:04;;;;;;;12.63;8.57;;;;;;;5.48;79.03;96813.47;4874855;29;20734;-63
2024/01/06 04:45:31;;;;;;;13.73;8.57;;;;;;;5.48;79.60;96846.06;4874776;29;20197;-63
2024/01/06 04:47:58;;;;;;;9.53;6.73;;;;;;;5.57;79.84;96843.19;4874563;29;20349;-64
2024/01/06 04:50:25;;;;;;;12.30;8.77;;;;;;;5.65;79.41;96841.25;4874223;29;20233;-64
2024/01/06 04:52:52;;;;;;;12.33;7.23;;;;;;;5.73;79.39;96835.00;4874241;29;20207;-64
2024/01/06 04:55:19;;;;;;;15.40;8.10;;;;;;;5.68;80.37;96838.59;4874210;29;20724;-65
2024/01/06 04:57:48;;;;;;;14.13;8.60;;;;;;;5.77;79.99;96840.88;4874214;29;20283;-64
2024/01/06 05:00:16;;;;;;;14.93;8.50;;;;;;;6.05;78.79;96835.78;4874469;29;20745;-65
2024/01/06 05:02:44;;;;;;;11.70;7.80;;;;;;;6.07;78.67;96844.28;4874515;29;20201;-63
2024/01/06 05:05:11;;;;;;;10.90;7.70;;;;;;;6.08;77.20;96820.25;4874057;29;20198;-63
2024/01/06 05:07:38;;;;;;;13.37;7.63;;;;;;;5.96;77.84;96816.34;4872813;29;20661;-63
2024/01/06 05:10:05;;;;;;;11.27;7.87;;;;;;;6.01;77.27;96819.63;4874251;29;20217;-64
2024/01/06 05:12:33;;;;;;;13.53;8.03;;;;;;;5.87;79.09;96814.06;4892500;29;20362;-66
2024/01/06 05:15:00;;;;;;;15.17;9.47;;;;;;;5.96;78.33;96824.03;4893258;29;20205;-64
2024/01/06 05:17:30;;;;;;;15.47;9.30;;;;;;;5.85;79.38;96807.28;4893197;29;20206;-65
2024/01/06 05:19:57;;;;;;;19.60;10.33;;;;;;;5.89;78.37;96807.16;4893105;29;20792;-66
2024/01/06 05:22:24;;;;;;;16.23;10.20;;;;;;;6.05;78.04;96803.19;4891988;29;20203;-65
2024/01/06 05:24:53;;;;;;;15.10;9.80;;;;;;;6.21;78.07;96816.38;4892885;29;20283;-68
2024/01/06 05:27:20;;;;;;;17.60;10.20;;;;;;;6.18;76.75;96822.47;4892370;29;20239;-66
2024/01/06 05:29:49;;;;;;;18.40;11.37;;;;;;;6.23;76.66;96825.75;4892183;29;20300;-67
2024/01/06 05:32:17;;;;;;;15.90;11.60;;;;;;;6.21;77.97;96819.81;4891912;29;20228;-68
2024/01/06 05:34:45;;;;;;;15.17;10.93;;;;;;;6.13;77.73;96793.50;4872710;29;20216;-68
2024/01/06 05:37:12;;;;;;;15.47;9.77;;;;;;;6.15;78.10;96817.44;4860299;29;20206;-68
2024/01/06 05:39:40;;;;;;;14.83;9.13;;;;;;;6.07;78.35;96808.28;4855517;29;20223;-67
2024/01/06 05:42:13;;;;;;;17.47;9.90;;;;;;;6.29;77.55;96825.53;4856737;29;20281;-64
2024/01/06 05:44:40;;;;;;;19.97;11.00;;;;;;;6.31;77.84;96834.06;4861754;29;20268;-65
2024/01/06 05:47:08;;;;;;;16.97;10.57;;;;;;;6.23;76.68;96830.88;4865226;29;20229;-64
2024/01/06 05:49:35;;;;;;;19.97;11.40;;;;;;;6.20;78.38;96836.13;4863725;29;20657;-68
2024/01/06 05:52:02;;;;;;;15.57;10.30;;;;;;;6.17;76.53;96831.09;4862860;29;20366;-69
2024/01/06 05:54:30;;;;;;;16.00;9.93;;;;;;;6.13;77.73;96839.78;4862320;29;20296;-67
2024/01/06 05:56:57;;;;;;;12.83;8.60;;;;;;;6.24;77.25;96844.59;4864511;29;20718;-68
2024/01/06 05:59:24;;;;;;;13.97;8.93;;;;;;;6.32;76.41;96845.19;4864943;29;20590;-68
2024/01/06 06:01:52;;;;;;;12.30;8.30;;;;;;;6.14;77.10;96833.75;4866084;29;20217;-70
2024/01/06 06:04:19;;;;;;;11.47;7.80;;;;;;;6.03;76.80;96842.69;4864725;29;20198;-67
2024/01/06 06:06:46;;;;;;;20.77;10.83;;;;;;;6.13;77.56;96844.94;4861408;29;20200;-68
2024/01/06 06:09:15;;;;;;;12.63;8.07;;;;;;;6.04;78.18;96849.53;4861585;29;20198;-65
2024/01/06 06:12:22;;;;;;;13.97;7.93;;;;;;;5.97;78.05;96833.44;4870568;29;20208;-66
2024/01/06 06:15:43;;;;;;;9.83;7.27;;;;;;;5.83;78.67;96834.72;4872337;29;20556;-69
2024/01/06 06:19:04;;;;;;;9.63;7.20;;;;;;;5.93;79.09;96826.72;4872357;29;20197;-68
2024/01/06 06:22:26;;;;;;;12.17;7.20;;;;;;;6.11;78.71;96836.44;4871934;29;20302;-68
2024/01/06 06:25:47;;;;;;;13.93;7.00;;;;;;;6.27;77.46;96827.31;4871862;29;20204;-69
2024/01/06 06:28:43;;;;;;;9.80;7.07;;;;;;;6.16;77.12;96829.38;4871353;29;20246;-65
2024/01/06 06:31:11;;;;;;;12.17;6.93;;;;;;;5.90;79.27;96821.66;4871767;29;20554;-65
2024/01/06 06:33:39;;;;;;;11.10;6.50;;;;;;;5.91;78.09;96813.09;4870733;29;20208;-67
2024/01/06 06:36:07;;;;;;;8.73;6.03;;;;;;;6.06;78.38;96827.19;4872285;29;20232;-67
2024/01/06 06:38:34;;;;;;;9.20;6.03;;;;;;;6.02;78.32;96833.31;4872017;29;20200;-66
2024/01/06 06:41:01;;;;;;;10.70;7.53;;;;;;;5.76;79.28;96805.81;4871800;29;20268;-67
2024/01/06 06:43:28;;;;;;;13.87;7.97;;;;;;;5.64;79.55;96789.06;4871796;29;20277;-64
2024/01/06 06:45:55;;;;;;;8.63;6.50;;;;;;;5.78;79.31;96827.16;4871846;29;20192;-66
2024/01/06 06:48:22;;;;;;;11.40;7.63;;;;;;;5.96;79.19;96831.75;4872033;29;20293;-62
2024/01/06 06:50:50;;;;;;;11.50;7.43;;;;;;;5.97;77.96;96823.16;4864198;29;20209;-68
2024/01/06 06:53:17;;;;;;;10.17;6.93;;;;;;;6.04;77.78;96829.78;4859930;29;20217;-68
2024/01/06 06:55:44;;;;;;;10.63;7.07;;;;;;;6.02;78.21;96823.84;4856483;29;20207;-64
2024/01/06 06:58:11;;;;;;;14.03;7.87;;;;;;;5.94;78.49;96818.09;4869384;29;20214;-66
2024/01/06 07:00:39;;;;;;;12.10;7.57;;;;;;;6.07;78.52;96826.28;4872017;29;20596;-66
2024/01/06 07:03:06;;;;;;;13.00;8.57;;;;;;;6.07;78.20;96823.72;4861841;29;20840;-65
2024/01/06 07:05:33;;;;;;;10.13;7.30;;;;;;;6.07;77.67;96834.84;4854218;29;20220;-63
2024/01/06 07:08:01;;;;;;;13.20;8.90;;;;;;;6.11;77.89;96808.16;4853356;29;20196;-67
2024/01/06 07:10:28;;;;;;;11.17;8.10;;;;;;;6.42;77.91;96828.56;4869070;29;20300;-64
2024/01/06 07:12:55;;;;;;;11.90;7.70;;;;;;;6.39;77.68;96802.94;4871315;29;20249;-65
2024/01/06 07:15:23;;;;;;;14.53;8.70;;;;;;;6.53;76.43;96793.88;4879407;29;20204;-69
2024/01/06 07:17:50;;;;;;;14.73;9.93;;;;;;;6.55;76.44;96814.41;4860406;29;20267;-63
2024/01/06 07:20:17;;;;;;;13.17;9.53;;;;;;;6.69;76.47;96801.91;4861635;29;20200;-65
2024/01/06 07:22:44;;;;;;;13.93;9.27;;;;;;;6.71;75.33;96799.28;4860640;29;20238;-64
2024/01/06 07:25:12;;;;;;;19.43;10.57;;;;;;;6.93;76.14;96818.22;4866185;29;20211;-64
2024/01/06 07:27:39;;;;;;;15.57;9.10;;;;;;;7.07;74.42;96803.13;4871456;29;20213;-64
2024/01/06 07:30:09;;;;;;;13.67;9.03;;;;;;;7.02;75.23;96789.59;4871699;29;20806;-66
2024/01/06 07:32:36;;;;;;;25.70;14.37;;;;;;;7.40;76.45;96814.78;4871459;29;20237;-64
2024/01/06 07:35:04;;;;;;;24.33;15.30;;;;;;;7.39;74.88;96803.66;4871233;29;20230;-64
2024/01/06 07:37:34;;;;;;;26.80;16.10;;;;;;;7.56;74.10;96794.47;4869938;29;20218;-64
2024/01/06 07:40:01;;;;;;;28.83;16.00;;;;;;;7.62;73.85;96800.22;4870968;29;20204;-65
2024/01/06 07:42:29;;;;;;;32.23;17.00;;;;;;;7.80;74.02;96799.50;4870842;29;20238;-64
2024/01/06 07:44:56;;;;;;;31.17;18.83;;;;;;;7.82;73.11;96800.28;4871078;29;20295;-64
2024/01/06 07:47:24;;;;;;;32.93;18.80;;;;;;;7.75;73.03;96772.25;4871220;29;20248;-66
2024/01/06 07:49:52;;;;;;;33.20;18.57;;;;;;;7.98;73.46;96801.38;4871274;29;20270;-63
2024/01/06 07:52:20;;;;;;;33.97;19.80;;;;;;;7.61;73.26;96772.75;4871046;29;20287;-63
2024/01/06 07:54:48;;;;;;;36.60;20.50;;;;;;;7.64;73.67;96788.13;4873542;29;20200;-65
2024/01/06 07:57:15;;;;;;;32.90;19.73;;;;;;;7.74;72.97;96801.47;4874572;29;20602;-63
2024/01/06 07:59:42;;;;;;;31.67;19.43;;;;;;;7.77;72.76;96807.34;4874749;29;20203;-65
2024/01/06 08:02:09;;;;;;;32.23;18.60;;;;;;;7.91;72.39;96812.81;4876641;29;20766;-67
2024/01/06 08:04:36;;;;;;;28.10;18.90;;;;;;;7.76;72.94;96812.56;4893300;29;20327;-66
2024/01/06 08:07:04;;;;;;;29.33;17.37;;;;;;;7.92;72.92;96814.50;4893407;29;20553;-66
2024/01/06 08:09:31;;;;;;;33.23;22.00;;;;;;;7.66;71.96;96755.41;4892861;29;20268;-65
2024/01/06 08:11:58;;;;;;;36.00;23.57;;;;;;;7.64;73.34;96816.47;4892977;29;20218;-66
2024/01/06 08:14:25;;;;;;;43.30;24.73;;;;;;;7.82;73.13;96792.56;4892836;29;20323;-66
2024/01/06 08:16:52;;;;;;;36.97;22.87;;;;;;;7.69;73.66;96796.50;4892824;29;20207;-65
2024/01/06 08:19:19;;;;;;;25.37;16.83;;;;;;;7.53;73.48;96774.78;4893044;29;20704;-65
2024/01/06 08:21:48;;;;;;;24.27;17.43;;;;;;;7.69;73.86;96796.50;4892888;29;20318;-66
2024/01/06 08:24:15;;;;;;;34.17;19.27;;;;;;;7.92;73.39;96808.50;4891649;29;20219;-65
2024/01/06 08:26:42;;;;;;;32.37;16.90;;;;;;;8.02;72.81;96794.34;4893129;29;20196;-68
2024/01/06 08:29:09;;;;;;;28.77;17.37;;;;;;;8.06;72.95;96808.78;4892842;29;20192;-64
2024/01/06 08:31:36;;;;;;;27.27;17.77;;;;;;;8.20;73.44;96802.19;4891039;29;20290;-65
2024/01/06 08:34:06;;;;;;;23.60;17.07;;;;;;;8.25;73.42;96802.03;4892816;29;20204;-65
2024/01/06 08:36:34;;;;;;;22.43;14.00;;;;;;;8.41;72.82;96802.28;4892571;29;20194;-66
2024/01/06 08:39:02;;;;;;;16.87;10.53;;;;;;;8.44;72.48;96786.66;4892696;29;20223;-65
2024/01/06 08:41:29;;;;;;;14.20;8.70;;;;;;;8.28;73.67;96795.91;4892645;29;20684;-65
2024/01/06 08:43:56;;;;;;;21.30;10.17;;;;;;;8.41;73.06;96797.09;4892505;29;20198;-65
2024/01/06 08:46:23;;;;;;;15.00;8.73;;;;;;;8.16;73.74;96774.03;4892799;29;20585;-63
2024/01/06 08:48:50;;;;;;;16.10;9.80;;;;;;;8.49;73.41;96805.38;4892576;29;20255;-67
2024/01/06 08:51:20;;;;;;;15.03;8.90;;;;;;;8.42;73.81;96780.72;4892382;29;20208;-68
2024/01/06 08:53:47;;;;;;;18.27;8.77;;;;;;;8.65;73.26;96802.09;4891266;29;20191;-68
2024/01/06 08:56:16;;;;;;;14.83;8.83;;;;;;;8.33;73.72;96732.06;4892392;29;20234;-68
2024/01/06 08:58:43;;;;;;;22.10;11.83;;;;;;;8.55;73.58;96764.63;4892441;29;20310;-68
2024/01/06 09:01:11;;;;;;;18.53;11.33;;;;;;;8.81;73.18;96779.88;4891620;29;20216;-65
2024/01/06 09:03:38;;;;;;;27.37;13.20;;;;;;;8.62;73.53;96781.56;4892188;29;20573;-66
2024/01/06 09:06:06;;;;;;;19.20;11.10;;;;;;;8.71;72.78;96765.69;4890990;29;20203;-68
2024/01/06 09:08:33;;;;;;;19.70;10.60;;;;;;;8.65;73.09;96760.78;4891912;29;20207;-65
2024/01/06 09:11:00;;;;;;;15.93;10.80;;;;;;;8.59;72.64;96763.63;4892124;29;20191;-65
2024/01/06 09:13:27;;;;;;;21.43;12.57;;;;;;;8.75;72.99;96766.38;4891990;29;20806;-66
2024/01/06 09:15:54;;;;;;;24.40;13.13;;;;;;;8.83;72.44;96774.63;4892152;29;20612;-66
2024/01/06 09:18:23;;;;;;;11.57;8.23;;;;;;;8.85;72.33;96762.50;4890361;29;20219;-66
2024/01/06 09:20:50;;;;;;;13.30;9.13;;;;;;;9.00;71.94;96774.75;4891715;29;20266;-65
2024/01/06 09:23:18;;;;;;;15.77;10.13;;;;;;;9.23;71.47;96768.56;4891732;29;20302;-67
2024/01/06 09:25:52;;;;;;;16.43;9.93;;;;;;;9.30;71.26;96764.78;4891691;29;20214;-67
2024/01/06 09:28:59;;;;;;;9.80;7.50;;;;;;;8.99;70.62;96700.75;4891518;29;20230;-68
2024/01/06 09:31:35;;;;;;;16.57;10.47;;;;;;;9.42;71.07;96754.72;4891714;29;20199;-64
2024/01/06 09:34:02;;;;;;;14.10;9.13;;;;;;;9.47;70.87;96742.44;4890952;29;20267;-62
2024/01/06 09:36:31;;;;;;;10.33;8.07;;;;;;;9.53;70.46;96742.16;4891407;29;20227;-64
2024/01/06 09:38:59;;;;;;;15.00;7.40;;;;;;;9.40;71.20;96735.03;4890145;29;20195;-65
2024/01/06 09:41:26;;;;;;;15.10;9.03;;;;;;;9.54;70.96;96730.91;4891412;29;20690;-68
2024/01/06 09:44:33;;;;;;;12.97;8.00;;;;;;;9.52;71.33;96718.97;4873443;29;20292;-65
2024/01/06 09:47:53;;;;;;;11.90;6.67;;;;;;;9.58;71.16;96704.00;4870128;29;20206;-65
2024/01/06 09:51:14;;;;;;;13.73;7.73;;;;;;;9.86;70.92;96713.88;4872296;29;20200;-69
2024/01/06 09:54:38;;;;;;;13.13;8.60;;;;;;;9.99;69.82;96712.38;4871707;29;20247;-66
2024/01/06 09:57:59;;;;;;;10.63;7.97;;;;;;;9.99;69.70;96706.38;4871753;29;20199;-65
2024/01/06 10:01:19;;;;;;;15.93;8.17;;;;;;;10.28;69.22;96701.44;4869865;29;20248;-66
2024/01/06 10:04:40;;;;;;;15.27;11.37;;;;;;;10.20;68.30;96682.06;4872351;29;20256;-70
2024/01/06 10:07:21;;;;;;;14.63;10.00;;;;;;;10.22;68.92;96675.88;4878609;29;20192;-67
2024/01/06 10:09:48;;;;;;;13.77;8.13;;;;;;;10.19;68.05;96665.69;4890059;29;20195;-67
2024/01/06 10:12:16;;;;;;;18.60;8.97;;;;;;;10.29;68.53;96666.06;4891594;29;20208;-68
2024/01/06 10:14:44;;;;;;;11.67;8.47;;;;;;;10.47;68.86;96662.53;4889850;29;20291;-68
2024/01/06 10:17:11;;;;;;;15.43;7.23;;;;;;;10.44;68.62;96658.38;4890905;29;20612;-65
2024/01/06 10:19:38;;;;;;;11.57;7.20;;;;;;;10.48;68.78;96661.63;4890793;29;20266;-68
2024/01/06 10:22:06;;;;;;;12.00;7.23;;;;;;;10.52;68.64;96668.31;4874123;29;20232;-66
2024/01/06 10:24:37;;;;;;;12.17;8.67;;;;;;;10.54;68.05;96662.16;4890945;29;20234;-65
2024/01/06 10:27:05;;;;;;;13.93;8.90;;;;;;;10.61;68.80;96667.84;4891400;29;20319;-65
2024/01/06 10:29:32;;;;;;;18.40;8.40;;;;;;;10.67;68.50;96670.13;4891289;29;20270;-65
2024/01/06 10:31:59;;;;;;;11.93;8.13;;;;;;;10.76;68.61;96656.69;4892226;29;20199;-66
2024/01/06 10:34:28;;;;;;;22.43;9.43;;;;;;;10.44;67.73;96582.47;4880969;29;20205;-67
2024/01/06 10:36:56;;;;;;;17.00;10.07;;;;;;;10.63;67.93;96643.53;4870893;29;20504;-69
2024/01/06 10:39:24;;;;;;;21.00;11.03;;;;;;;10.60;68.45;96645.47;4872564;29;20200;-64
2024/01/06 10:41:52;;;;;;;13.10;9.37;;;;;;;10.62;68.16;96628.09;4871518;29;20268;-70
2024/01/06 10:44:21;;;;;;;16.80;9.57;;;;;;;10.56;68.25;96644.78;4872004;29;20233;-67
2024/01/06 10:46:49;;;;;;;17.23;10.50;;;;;;;10.70;67.81;96633.69;4872185;29;20209;-65
2024/01/06 10:49:21;;;;;;;18.33;10.87;;;;;;;10.62;68.30;96628.09;4871098;29;20698;-63
2024/01/06 10:51:49;;;;;;;22.63;13.07;;;;;;;10.54;68.47;96594.00;4871728;29;20650;-67
2024/01/06 10:54:19;;;;;;;25.10;13.63;;;;;;;10.71;68.67;96612.06;4872073;29;20197;-65
2024/01/06 10:56:48;;;;;;;25.53;13.27;;;;;;;10.37;69.47;96619.91;4852811;29;20759;-64
2024/01/06 10:59:16;;;;;;;20.57;11.77;;;;;;;10.23;70.30;96617.19;4867170;29;20681;-64
2024/01/06 11:01:44;;;;;;;19.10;13.07;;;;;;;10.44;69.63;96613.53;4853435;29;20663;-63
2024/01/06 11:04:13;;;;;;;20.30;13.40;;;;;;;10.59;68.78;96607.56;4853077;29;20212;-66
2024/01/06 11:06:42;;;;;;;19.37;13.43;;;;;;;10.51;68.90;96607.94;4853070;29;20317;-63
2024/01/06 11:09:19;;;;;;;22.80;13.10;;;;;;;10.77;68.48;96603.13;4851908;29;20712;-64
2024/01/06 11:11:48;;;;;;;21.13;13.10;;;;;;;10.80;68.40;96600.41;4852901;29;20695;-64
2024/01/06 11:14:26;;;;;;;21.00;12.97;;;;;;;11.02;67.54;96606.94;4852618;29;20236;-63
2024/01/06 11:16:54;;;;;;;21.63;12.10;;;;;;;11.04;67.41;96599.91;4853230;29;20233;-63
2024/01/06 11:19:34;;;;;;;22.63;13.13;;;;;;;10.97;68.04;96602.88;4852843;29;20643;-65
2024/01/06 11:22:22;;;;;;;19.17;12.63;;;;;;;10.99;68.17;96591.53;4851485;29;20235;-64
2024/01/06 11:24:52;;;;;;;19.67;13.63;;;;;;;10.95;67.92;96595.22;4852749;29;21039;-69
2024/01/06 11:27:22;;;;;;;20.93;13.93;;;;;;;10.96;67.83;96601.25;4852573;29;20206;-64
2024/01/06 11:29:56;;;;;;;24.13;13.37;;;;;;;10.93;67.60;96576.31;4852374;29;20261;-64
2024/01/06 11:32:38;;;;;;;18.87;12.67;;;;;;;10.98;67.83;96587.28;4852477;29;20244;-65
2024/01/06 11:35:11;;;;;;;22.47;13.73;;;;;;;11.12;67.37;96589.94;4852706;29;20205;-65
2024/01/06 11:37:41;;;;;;;20.00;13.07;;;;;;;11.10;67.27;96581.44;4852152;29;20697;-64
2024/01/06 11:40:24;;;;;;;26.20;14.10;;;;;;;11.05;68.06;96570.47;4852748;29;20704;-64
2024/01/06 11:43:06;;;;;;;23.40;13.83;;;;;;;11.05;67.85;96564.44;4852680;29;20329;-65